createdAt,value
2023-05-05T05:00:44.456Z,3.05
2023-05-05T05:03:11.949Z,3.78
2023-05-05T05:05:38.928Z,3.45
2023-05-05T05:08:06.670Z,3.10
2023-05-05T05:10:33.713Z,3.60
2023-05-05T05:13:02.269Z,3.70
2023-05-05T05:15:29.032Z,2.88
2023-05-05T05:17:56.305Z,3.47
2023-05-05T05:20:24.397Z,3.33
2023-05-05T05:22:51.917Z,3.30
2023-05-05T05:25:20.623Z,3.63
2023-05-05T05:28:01.974Z,2.92
2023-05-05T05:30:37.050Z,3.60
2023-05-05T05:33:06.565Z,3.80
2023-05-05T05:35:33.182Z,3.67
2023-05-05T05:38:00.904Z,3.60
2023-05-05T05:40:27.508Z,3.70
2023-05-05T05:42:55.676Z,4.97
2023-05-05T05:45:27.085Z,4.10
2023-05-05T05:47:54.402Z,4.20
2023-05-05T05:50:21.625Z,5.30
2023-05-05T05:52:48.942Z,4.57
2023-05-05T05:55:15.724Z,4.55
2023-05-05T05:57:43.255Z,5.40
2023-05-05T06:00:11.634Z,5.55
2023-05-05T06:02:38.885Z,7.05
2023-05-05T06:05:09.613Z,6.45
2023-05-05T06:07:37.343Z,6.10
2023-05-05T06:10:25.159Z,5.95
2023-05-05T06:12:54.189Z,5.80
2023-05-05T06:15:20.978Z,5.85
2023-05-05T06:20:29.478Z,5.57
2023-05-05T06:22:56.741Z,6.00
2023-05-05T06:25:24.146Z,6.40
2023-05-05T06:27:52.255Z,6.15
2023-05-05T06:30:18.795Z,6.43
2023-05-05T06:32:46.119Z,6.53
2023-05-05T06:35:12.675Z,6.82
2023-05-05T06:37:40.135Z,7.00
2023-05-05T06:40:07.977Z,7.22
2023-05-05T06:42:36.252Z,7.20
2023-05-05T06:45:07.275Z,8.18
2023-05-05T06:47:34.855Z,7.40
2023-05-05T06:50:01.564Z,7.88
2023-05-05T06:52:28.610Z,6.93
2023-05-05T06:54:55.087Z,6.57
2023-05-05T06:57:22.289Z,7.30
2023-05-05T06:59:48.860Z,7.30
2023-05-05T07:02:16.115Z,7.10
2023-05-05T07:04:43.991Z,7.35
2023-05-05T07:07:11.196Z,7.25
2023-05-05T07:09:37.774Z,8.20
2023-05-05T07:12:05.122Z,8.60
2023-05-05T07:14:31.697Z,8.15
2023-05-05T07:16:58.983Z,8.48
2023-05-05T07:19:25.628Z,7.97
2023-05-05T07:21:52.815Z,10.45
2023-05-05T07:24:19.437Z,10.05
2023-05-05T07:26:46.835Z,9.63
2023-05-05T07:29:13.510Z,9.93
2023-05-05T07:31:40.892Z,10.43
2023-05-05T07:34:07.571Z,11.13
2023-05-05T07:36:34.852Z,11.43
2023-05-05T07:39:01.661Z,9.23
2023-05-05T07:41:28.937Z,10.57
2023-05-05T07:43:55.562Z,11.10
2023-05-05T07:46:22.719Z,11.07
2023-05-05T07:48:49.329Z,11.05
2023-05-05T07:51:16.554Z,12.55
2023-05-05T07:53:43.280Z,11.15
2023-05-05T07:56:10.820Z,12.75
2023-05-05T07:58:37.364Z,11.70
2023-05-05T08:01:06.777Z,13.07
2023-05-05T08:03:33.534Z,12.48
2023-05-05T08:06:08.869Z,12.73
2023-05-05T08:08:35.678Z,12.27
2023-05-05T08:11:03.241Z,14.43
2023-05-05T08:13:32.602Z,13.30
2023-05-05T08:18:26.993Z,13.20
2023-05-05T08:20:54.900Z,12.20
2023-05-05T08:23:21.800Z,13.60
2023-05-05T08:25:50.159Z,12.75
2023-05-05T08:28:16.740Z,14.18
2023-05-05T08:30:44.321Z,13.45
2023-05-05T08:33:11.092Z,14.23
2023-05-05T08:35:38.401Z,15.13
2023-05-05T08:38:05.010Z,14.00
2023-05-05T08:40:38.406Z,13.38
2023-05-05T08:43:05.573Z,12.90
2023-05-05T08:48:35.265Z,13.02
2023-05-05T08:53:47.881Z,14.70
2023-05-05T08:56:18.413Z,13.82
2023-05-05T08:58:46.513Z,12.07
2023-05-05T09:01:14.686Z,13.80
2023-05-05T09:03:41.397Z,12.57
2023-05-05T09:06:09.891Z,13.20
2023-05-05T09:08:40.105Z,13.50
2023-05-05T09:11:07.402Z,12.90
2023-05-05T09:13:34.127Z,12.35
2023-05-05T09:16:01.448Z,11.27
2023-05-05T09:18:44.612Z,10.68
2023-05-05T09:21:28.026Z,11.68
2023-05-05T09:24:11.734Z,12.43
2023-05-05T09:26:42.290Z,11.15
2023-05-05T09:29:09.412Z,13.45
2023-05-05T09:31:37.920Z,11.85
2023-05-05T09:34:15.919Z,12.40
2023-05-05T09:36:49.630Z,11.70
2023-05-05T09:39:20.005Z,12.43
2023-05-05T09:41:47.556Z,12.73
2023-05-05T09:44:16.093Z,12.48
2023-05-05T09:46:53.459Z,13.02
2023-05-05T09:49:26.808Z,10.93
2023-05-05T09:51:55.626Z,12.27
2023-05-05T09:54:27.331Z,10.97
2023-05-05T09:56:55.738Z,10.13
2023-05-05T09:59:23.120Z,10.82
2023-05-05T10:01:51.604Z,11.27
2023-05-05T10:04:25.062Z,9.52
2023-05-05T10:06:52.441Z,8.05
2023-05-05T10:09:19.130Z,8.35
2023-05-05T10:11:47.873Z,7.50
2023-05-05T10:14:15.900Z,9.52
2023-05-05T10:16:51.083Z,8.20
2023-05-05T10:19:22.970Z,7.10
2023-05-05T10:21:59.817Z,7.75
2023-05-05T10:24:35.836Z,6.47
2023-05-05T10:27:05.063Z,4.88
2023-05-05T10:30:00.237Z,3.80
2023-05-05T10:32:56.394Z,3.55
2023-05-05T10:35:24.858Z,3.38
2023-05-05T10:37:52.670Z,3.38
2023-05-05T10:40:22.410Z,3.92
2023-05-05T10:45:18.264Z,2.95
2023-05-05T10:47:45.019Z,3.97
2023-05-05T10:50:21.863Z,4.47
2023-05-05T10:53:11.159Z,5.10
2023-05-05T10:55:48.641Z,4.75
2023-05-05T10:58:46.894Z,5.25
2023-05-05T11:01:33.146Z,5.63
2023-05-05T11:04:18.758Z,4.78
2023-05-05T11:07:14.773Z,5.32
2023-05-05T11:10:15.869Z,5.45
2023-05-05T11:12:52.042Z,5.38
2023-05-05T11:15:29.236Z,4.65
2023-05-05T11:18:40.112Z,5.07
2023-05-05T11:21:20.657Z,4.82
2023-05-05T11:23:56.770Z,4.78
2023-05-05T11:26:50.351Z,4.70
2023-05-05T11:29:17.927Z,5.15
2023-05-05T11:31:47.990Z,5.10
2023-05-05T11:34:29.375Z,5.15
2023-05-05T11:36:59.063Z,4.97
2023-05-05T11:39:33.536Z,4.78
2023-05-05T11:42:28.752Z,5.07
2023-05-05T11:44:56.356Z,6.88
2023-05-05T11:47:23.115Z,5.80
2023-05-05T11:49:50.825Z,5.05
2023-05-05T11:55:05.757Z,4.30
2023-05-05T11:57:32.371Z,4.53
2023-05-05T12:00:02.537Z,3.53
2023-05-05T12:02:31.831Z,3.20
2023-05-05T12:05:00.198Z,3.70
2023-05-05T12:07:33.395Z,3.72
2023-05-05T12:10:01.108Z,4.03
2023-05-05T12:12:38.609Z,3.25
2023-05-05T12:15:06.969Z,4.18
2023-05-05T12:17:44.908Z,3.55
2023-05-05T12:20:13.424Z,3.50
2023-05-05T12:22:40.571Z,3.28
2023-05-05T12:25:09.049Z,3.10
2023-05-05T12:27:35.805Z,3.75
2023-05-05T12:30:14.483Z,3.33
2023-05-05T12:32:41.493Z,4.13
2023-05-05T12:35:10.174Z,3.72
2023-05-05T12:37:37.099Z,2.47
2023-05-05T12:40:06.608Z,3.55
2023-05-05T12:42:38.894Z,2.65
2023-05-05T12:45:08.170Z,3.03
2023-05-05T12:47:36.704Z,3.65
2023-05-05T12:50:03.934Z,3.33
2023-05-05T12:52:46.180Z,2.85
2023-05-05T12:55:13.215Z,2.40
2023-05-05T12:58:00.769Z,3.20
2023-05-05T13:00:29.396Z,2.67
2023-05-05T13:02:56.853Z,3.03
2023-05-05T13:05:34.506Z,3.00
2023-05-05T13:08:01.087Z,2.67
2023-05-05T13:10:31.220Z,2.00
2023-05-05T13:12:58.786Z,2.00
2023-05-05T13:15:26.149Z,2.30
2023-05-05T13:18:03.102Z,1.90
2023-05-05T13:20:29.755Z,2.85
2023-05-05T13:22:57.589Z,2.67
2023-05-05T13:25:24.251Z,2.50
2023-05-05T13:27:51.587Z,2.65
2023-05-05T13:30:18.159Z,1.60
2023-05-05T13:32:45.480Z,2.03
2023-05-05T13:35:14.689Z,1.88
2023-05-05T13:37:44.594Z,2.30
2023-05-05T13:40:13.266Z,2.72
2023-05-05T13:42:40.612Z,2.00
2023-05-05T13:45:07.902Z,2.13
2023-05-05T13:47:35.015Z,2.00
2023-05-05T13:50:01.990Z,2.40
2023-05-05T13:52:31.623Z,1.60
2023-05-05T13:54:59.728Z,1.42
2023-05-05T13:57:27.296Z,1.80
2023-05-05T13:59:53.990Z,1.80
2023-05-05T14:02:21.313Z,1.50
2023-05-05T14:04:47.897Z,2.65
2023-05-05T14:07:15.147Z,1.70
2023-05-05T14:09:41.742Z,2.20
2023-05-05T14:12:09.007Z,2.10
2023-05-05T14:14:36.041Z,2.00
2023-05-05T14:17:03.388Z,1.60
2023-05-05T14:19:30.056Z,2.40
2023-05-05T14:21:57.713Z,2.00
2023-05-05T14:24:24.394Z,2.40
2023-05-05T14:26:51.614Z,2.00
2023-05-05T14:29:18.224Z,2.05
2023-05-05T14:31:45.560Z,2.80
2023-05-05T14:34:12.184Z,2.53
2023-05-05T14:36:39.418Z,2.72
2023-05-05T14:39:05.983Z,4.60
2023-05-05T14:41:33.195Z,6.15
2023-05-05T14:43:59.754Z,4.68
2023-05-05T14:46:27.686Z,3.40
2023-05-05T14:48:54.323Z,3.00
2023-05-05T14:51:21.548Z,3.10
2023-05-05T14:53:48.210Z,3.08
2023-05-05T14:56:17.445Z,2.55
2023-05-05T14:58:44.044Z,2.30
2023-05-05T15:01:11.351Z,2.47
2023-05-05T15:03:38.260Z,2.40
2023-05-05T15:06:05.828Z,2.28
2023-05-05T15:08:32.432Z,2.10
2023-05-05T15:10:59.688Z,2.00
2023-05-05T15:13:26.787Z,1.95
2023-05-05T15:15:53.767Z,2.22
2023-05-05T15:18:20.490Z,2.97
2023-05-05T15:20:47.723Z,2.35
2023-05-05T15:23:14.565Z,3.28
2023-05-05T15:25:42.100Z,3.70
2023-05-05T15:28:08.738Z,3.08
2023-05-05T15:30:36.054Z,3.00
2023-05-05T15:33:02.701Z,3.35
2023-05-05T15:35:29.944Z,3.28
2023-05-05T15:37:56.568Z,4.00
2023-05-05T15:40:23.721Z,2.58
2023-05-05T15:42:51.122Z,1.58
2023-05-05T15:45:18.108Z,2.00
2023-05-05T15:47:45.858Z,1.50
2023-05-05T15:50:12.897Z,1.85
2023-05-05T15:52:40.253Z,1.88
2023-05-05T15:55:07.861Z,2.40
2023-05-05T15:57:35.400Z,2.28
2023-05-05T16:00:02.371Z,2.50
2023-05-05T16:02:34.446Z,1.92
2023-05-05T16:05:01.493Z,1.30
2023-05-05T16:07:28.075Z,1.20
2023-05-05T16:09:55.057Z,1.20
2023-05-05T16:12:22.406Z,1.55
2023-05-05T16:14:49.111Z,1.83
2023-05-05T16:17:16.035Z,6.13
2023-05-05T16:19:42.613Z,3.25
2023-05-05T16:22:09.828Z,2.90
2023-05-05T16:24:36.514Z,2.78
2023-05-05T16:27:04.517Z,5.15
2023-05-05T16:29:31.184Z,3.92
2023-05-05T16:31:58.536Z,2.10
2023-05-05T16:34:25.197Z,2.28
2023-05-05T16:36:53.666Z,2.33
2023-05-05T16:39:20.290Z,2.88
2023-05-05T16:41:47.519Z,2.40
2023-05-05T16:44:14.431Z,1.60
2023-05-05T16:46:41.460Z,1.65
2023-05-05T16:49:08.433Z,1.40
2023-05-05T16:51:35.382Z,1.77
2023-05-05T16:54:02.019Z,1.52
2023-05-05T16:56:29.396Z,1.55
2023-05-05T16:58:56.118Z,1.70
2023-05-05T17:01:23.429Z,1.70
2023-05-05T17:03:50.520Z,1.73
2023-05-05T17:06:17.873Z,2.25
2023-05-05T17:08:44.548Z,2.10
2023-05-05T17:11:14.490Z,2.13
2023-05-05T17:16:08.300Z,2.53
2023-05-05T17:18:34.954Z,2.15
2023-05-05T17:21:02.194Z,2.25
2023-05-05T17:23:28.826Z,1.65
2023-05-05T17:25:56.178Z,1.92
2023-05-05T17:28:22.876Z,1.90
2023-05-05T17:30:49.831Z,1.90
2023-05-05T17:33:20.745Z,1.60
2023-05-05T17:35:48.499Z,1.40
2023-05-05T17:38:15.467Z,1.55
2023-05-05T17:40:42.705Z,1.50
2023-05-05T17:43:09.358Z,1.45
2023-05-05T17:45:36.684Z,1.42
2023-05-05T17:48:03.508Z,1.73
2023-05-05T17:50:30.828Z,1.58
2023-05-05T17:52:57.433Z,1.52
2023-05-05T17:55:24.685Z,3.30
2023-05-05T17:57:55.772Z,2.35
2023-05-05T18:00:23.268Z,1.73
2023-05-05T18:02:49.825Z,1.73
2023-05-05T18:05:16.877Z,1.42
2023-05-05T18:07:43.801Z,1.55
2023-05-05T18:10:11.064Z,1.60
2023-05-05T18:12:37.853Z,1.80
2023-05-05T18:15:05.645Z,1.73
2023-05-05T18:17:32.282Z,1.75
2023-05-05T18:19:59.461Z,1.83
2023-05-05T18:22:26.267Z,2.17
2023-05-05T18:24:59.166Z,1.48
2023-05-05T18:27:26.915Z,1.42
2023-05-05T18:29:54.336Z,1.40
2023-05-05T18:32:21.666Z,2.13
2023-05-05T18:34:48.957Z,2.10
2023-05-05T18:37:15.606Z,1.65
2023-05-05T18:39:44.065Z,1.58
2023-05-05T18:42:12.685Z,2.00
2023-05-05T18:44:40.037Z,1.58
2023-05-05T18:47:06.849Z,1.90
2023-05-05T18:49:34.203Z,2.35
2023-05-05T18:52:00.840Z,2.08
2023-05-05T18:54:28.087Z,3.55
2023-05-05T18:56:54.750Z,2.70
2023-05-05T18:59:22.516Z,2.55
2023-05-05T19:01:49.061Z,2.45
2023-05-05T19:04:30.148Z,2.50
2023-05-05T19:06:59.135Z,2.60
2023-05-05T19:09:26.606Z,2.65
2023-05-05T19:11:53.260Z,2.75
2023-05-05T19:14:20.551Z,2.70
2023-05-05T19:16:47.213Z,2.28
2023-05-05T19:19:14.714Z,1.90
2023-05-05T19:21:41.327Z,2.20
2023-05-05T19:24:09.596Z,2.30
2023-05-05T19:26:36.343Z,2.70
2023-05-05T19:29:03.702Z,2.33
2023-05-05T19:31:31.225Z,2.40
2023-05-05T19:34:01.505Z,2.70
2023-05-05T19:36:28.908Z,4.95
2023-05-05T19:38:56.287Z,4.43
2023-05-05T19:41:23.151Z,4.00
2023-05-05T19:43:50.491Z,3.28
2023-05-05T19:46:17.242Z,3.35
2023-05-05T19:48:44.649Z,3.25
2023-05-05T19:51:11.333Z,3.45
2023-05-05T19:53:40.377Z,3.30
2023-05-05T19:56:07.376Z,3.63
2023-05-05T19:58:59.492Z,3.30
2023-05-05T20:01:27.675Z,3.55
2023-05-05T20:03:56.620Z,3.17
2023-05-05T20:06:23.653Z,3.17
2023-05-05T20:08:51.122Z,4.57
2023-05-05T20:11:18.192Z,3.78
2023-05-05T20:13:45.557Z,4.47
2023-05-05T20:16:12.860Z,3.40
2023-05-05T20:18:40.533Z,3.70
2023-05-05T20:21:07.118Z,3.38
2023-05-05T20:23:34.467Z,4.95
2023-05-05T20:26:01.632Z,4.50
2023-05-05T20:28:28.981Z,4.55
